createdAt,value
2023-03-01T00:03:12.035Z,81.18
2023-03-01T00:06:47.162Z,81.53
2023-03-01T00:10:44.209Z,81.73
2023-03-01T00:14:42.533Z,82.41
2023-03-01T00:18:40.370Z,82.29
2023-03-01T00:22:38.186Z,82.35
2023-03-01T00:26:56.218Z,82.46
2023-03-01T00:34:42.526Z,83.04
2023-03-01T00:38:46.143Z,82.76
2023-03-01T00:42:41.372Z,82.63
2023-03-01T00:46:36.988Z,82.45
2023-03-01T00:50:32.402Z,82.51
2023-03-01T00:54:31.155Z,82.31
2023-03-01T00:58:30.873Z,82.08
2023-03-01T01:02:45.877Z,82.10
2023-03-01T01:06:18.778Z,81.84
2023-03-01T01:15:44.594Z,82.12
2023-03-01T01:19:42.896Z,81.92
2023-03-01T01:23:40.391Z,81.99
2023-03-01T01:27:36.269Z,81.48
2023-03-01T01:37:09.002Z,81.49
2023-03-01T01:41:07.825Z,81.56
2023-03-01T01:45:30.277Z,81.68
2023-03-01T01:49:37.115Z,81.85
2023-03-01T01:54:01.282Z,82.51
2023-03-01T01:58:02.938Z,83.21
2023-03-01T02:02:03.051Z,83.04
2023-03-01T02:06:07.760Z,83.28
2023-03-01T02:10:07.517Z,83.55
2023-03-01T02:14:08.665Z,83.42
2023-03-01T02:17:45.306Z,83.15
2023-03-01T02:22:13.840Z,82.89
2023-03-01T02:26:33.287Z,82.53
2023-03-01T02:30:32.992Z,81.86
2023-03-01T02:34:32.492Z,82.07
2023-03-01T02:38:29.278Z,81.65
2023-03-01T02:42:33.153Z,81.47
2023-03-01T02:46:45.366Z,81.61
2023-03-01T02:50:48.116Z,81.34
2023-03-01T02:55:05.315Z,81.15
2023-03-01T02:59:01.775Z,80.63
2023-03-01T03:01:48.868Z,80.73
2023-03-01T03:04:35.609Z,80.69
2023-03-01T03:07:21.974Z,80.34
2023-03-01T03:10:15.161Z,79.66
2023-03-01T03:13:05.351Z,79.81
2023-03-01T03:16:00.642Z,79.46
2023-03-01T03:18:48.312Z,79.54
2023-03-01T03:21:36.328Z,79.59
2023-03-01T03:24:23.535Z,79.15
2023-03-01T03:27:10.054Z,78.91
2023-03-01T03:30:13.391Z,78.80
2023-03-01T03:34:04.815Z,79.22
2023-03-01T03:37:42.850Z,79.19
2023-03-01T03:47:41.044Z,80.11
2023-03-01T04:01:42.404Z,79.15
2023-03-01T04:04:42.104Z,78.19
2023-03-01T04:08:37.907Z,78.47
2023-03-01T04:12:38.293Z,78.38
2023-03-01T04:16:15.050Z,78.56
2023-03-01T04:19:03.903Z,78.80
2023-03-01T04:22:10.361Z,78.45
2023-03-01T04:26:05.755Z,78.66
2023-03-01T04:30:19.989Z,78.67
2023-03-01T04:33:46.336Z,78.87
2023-03-01T04:38:00.735Z,79.06
2023-03-01T04:41:25.602Z,79.13
2023-03-01T04:45:20.796Z,79.24
2023-03-01T04:49:22.316Z,78.99
2023-03-01T04:53:13.040Z,78.74
2023-03-01T04:56:33.142Z,78.56
2023-03-01T04:59:24.531Z,78.58
2023-03-01T05:02:11.098Z,78.61
2023-03-01T05:04:58.692Z,78.57
2023-03-01T05:07:45.153Z,77.97
2023-03-01T05:10:33.773Z,78.12
2023-03-01T05:13:22.091Z,77.68
2023-03-01T05:16:12.661Z,77.82
2023-03-01T05:18:59.929Z,77.87
2023-03-01T05:22:05.013Z,78.03
2023-03-01T05:24:51.681Z,77.83
2023-03-01T05:27:38.454Z,77.95
2023-03-01T05:30:25.167Z,77.59
2023-03-01T05:33:14.519Z,77.60
2023-03-01T05:36:01.872Z,77.54
2023-03-01T05:38:48.400Z,77.69
2023-03-01T05:41:35.180Z,77.72
2023-03-01T05:44:23.156Z,77.82
2023-03-01T05:47:10.007Z,77.78
2023-03-01T05:49:56.748Z,77.56
2023-03-01T05:52:52.222Z,77.36
2023-03-01T05:55:38.955Z,77.16
2023-03-01T05:58:28.360Z,77.04
2023-03-01T06:01:14.845Z,76.58
2023-03-01T06:04:02.486Z,76.23
2023-03-01T06:06:49.826Z,76.07
2023-03-01T06:09:53.480Z,76.16
2023-03-01T06:12:45.441Z,76.12
2023-03-01T06:15:32.159Z,75.51
2023-03-01T06:18:19.382Z,75.29
2023-03-01T06:21:08.093Z,74.37
2023-03-01T06:23:57.368Z,73.65
2023-03-01T06:26:44.635Z,73.40
2023-03-01T06:29:32.660Z,73.50
2023-03-01T06:32:20.629Z,71.85
2023-03-01T06:35:07.875Z,70.89
2023-03-01T06:37:54.392Z,69.83
2023-03-01T06:40:43.022Z,69.57
2023-03-01T06:43:29.312Z,69.22
2023-03-01T06:46:16.334Z,67.99
2023-03-01T06:49:08.800Z,67.46
2023-03-01T06:56:17.672Z,66.30
2023-03-01T06:59:04.512Z,64.07
2023-03-01T07:01:51.811Z,63.72
2023-03-01T07:04:38.297Z,63.86
2023-03-01T07:07:25.223Z,63.33
2023-03-01T07:14:34.630Z,63.36
2023-03-01T07:17:21.409Z,63.53
2023-03-01T07:24:30.848Z,61.19
2023-03-01T07:30:12.629Z,59.69
2023-03-01T07:33:30.015Z,60.45
2023-03-01T07:37:28.163Z,59.78
2023-03-01T07:41:23.681Z,58.77
2023-03-01T07:45:33.062Z,57.47
2023-03-01T07:48:19.725Z,57.09
2023-03-01T07:52:01.301Z,55.72
2023-03-01T07:55:02.392Z,54.14
2023-03-01T07:57:51.485Z,52.74
2023-03-01T08:01:05.310Z,51.62
2023-03-01T08:04:41.078Z,51.52
2023-03-01T08:19:28.150Z,50.09
2023-03-01T09:00:51.595Z,45.91
2023-03-01T09:25:10.499Z,44.36
2023-03-01T09:27:58.717Z,44.43
2023-03-01T09:30:49.212Z,44.92
2023-03-01T09:33:36.043Z,44.05
2023-03-01T09:41:36.774Z,43.18
2023-03-01T09:55:15.594Z,40.71
2023-03-01T10:08:48.787Z,38.12
2023-03-01T10:11:45.397Z,37.74
2023-03-01T10:15:09.705Z,40.63
2023-03-01T10:18:08.375Z,40.99
2023-03-01T10:22:29.305Z,38.11
2023-03-01T10:26:40.137Z,36.60
2023-03-01T10:30:59.505Z,37.26
2023-03-01T10:34:24.226Z,37.92
2023-03-01T10:38:12.681Z,38.85
2023-03-01T10:46:38.706Z,37.39
2023-03-01T10:49:27.338Z,37.64
2023-03-01T10:52:23.911Z,36.62
2023-03-01T10:55:14.064Z,36.41
2023-03-01T10:58:13.273Z,37.02
2023-03-01T11:03:39.902Z,39.23
2023-03-01T11:07:12.392Z,39.22
2023-03-01T11:11:13.344Z,36.02
2023-03-01T11:25:09.943Z,34.34
2023-03-01T11:28:01.895Z,35.22
2023-03-01T11:34:12.206Z,36.22
2023-03-01T11:37:02.355Z,34.75
2023-03-01T11:39:55.615Z,33.50
2023-03-01T11:42:56.090Z,33.12
2023-03-01T11:46:02.309Z,35.40
2023-03-01T11:49:00.554Z,37.04
2023-03-01T11:52:04.678Z,36.54
2023-03-01T11:55:18.162Z,34.62
2023-03-01T11:58:05.580Z,33.10
2023-03-01T12:01:07.526Z,31.77
2023-03-01T12:04:04.939Z,33.08
2023-03-01T12:06:58.483Z,35.01
2023-03-01T12:10:25.935Z,35.92
2023-03-01T12:13:17.939Z,35.26
2023-03-01T12:16:37.462Z,34.30
2023-03-01T12:20:01.026Z,32.49
2023-03-01T12:22:55.120Z,31.74
2023-03-01T12:26:01.228Z,32.50
2023-03-01T12:29:14.418Z,32.57
2023-03-01T12:32:19.283Z,31.77
2023-03-01T12:35:30.870Z,30.93
2023-03-01T12:38:22.704Z,31.17
2023-03-01T12:41:33.994Z,31.89
2023-03-01T12:44:44.974Z,31.12
2023-03-01T12:47:59.099Z,31.06
2023-03-01T12:50:53.062Z,30.14
2023-03-01T12:53:43.438Z,30.56
2023-03-01T12:56:32.614Z,30.70
2023-03-01T12:59:32.068Z,33.33
2023-03-01T13:02:28.752Z,35.70
2023-03-01T13:05:25.831Z,36.45
2023-03-01T13:09:04.337Z,36.10
2023-03-01T13:11:55.760Z,34.99
2023-03-01T13:15:10.720Z,35.22
2023-03-01T13:18:25.863Z,35.30
2023-03-01T13:21:32.267Z,38.33
2023-03-01T13:24:49.777Z,38.79
2023-03-01T13:27:36.408Z,38.16
2023-03-01T13:30:35.471Z,36.73
2023-03-01T13:33:31.332Z,36.45
2023-03-01T13:36:30.814Z,38.77
2023-03-01T13:39:40.608Z,37.21
2023-03-01T13:42:38.271Z,36.59
2023-03-01T13:45:35.105Z,34.16
2023-03-01T13:48:35.592Z,34.90
2023-03-01T13:51:36.228Z,34.90
2023-03-01T13:54:35.232Z,34.69
2023-03-01T13:57:26.382Z,37.45
2023-03-01T14:00:35.199Z,39.65
2023-03-01T14:03:21.069Z,42.06
2023-03-01T14:06:15.314Z,41.14
2023-03-01T14:09:34.553Z,36.12
2023-03-01T14:12:33.204Z,34.31
2023-03-01T14:15:36.382Z,33.34
2023-03-01T14:18:30.417Z,32.39
2023-03-01T14:21:16.364Z,31.84
2023-03-01T14:24:02.653Z,31.00
2023-03-01T14:26:50.136Z,31.29
2023-03-01T14:42:10.569Z,28.90
2023-03-01T14:45:21.536Z,27.81
2023-03-01T14:49:03.032Z,28.86
2023-03-01T14:53:06.467Z,30.30
2023-03-01T14:56:48.218Z,32.32
2023-03-01T15:00:53.521Z,34.53
2023-03-01T15:04:15.878Z,37.36
2023-03-01T15:07:59.384Z,39.97
2023-03-01T15:11:14.997Z,43.04
2023-03-01T15:16:02.209Z,46.23
2023-03-01T15:19:06.109Z,48.20
2023-03-01T15:22:49.777Z,49.48
2023-03-01T15:26:30.526Z,52.33
2023-03-01T15:55:34.702Z,56.53
2023-03-01T15:58:31.458Z,57.58
2023-03-01T16:13:18.086Z,60.22
2023-03-01T16:45:36.411Z,65.42
2023-03-01T17:40:46.308Z,68.02
2023-03-01T17:43:33.821Z,68.70
2023-03-01T17:46:19.926Z,68.91
2023-03-01T17:49:08.967Z,69.29
2023-03-01T17:51:58.262Z,69.57
2023-03-01T17:55:02.876Z,70.04
2023-03-01T18:36:36.075Z,72.36
2023-03-01T18:50:06.328Z,73.55
2023-03-01T19:18:20.474Z,75.54
2023-03-01T19:22:04.821Z,76.36
2023-03-01T19:35:31.587Z,75.71
2023-03-01T19:38:20.006Z,75.78
2023-03-01T19:41:34.703Z,75.90
2023-03-01T19:44:25.633Z,75.63
2023-03-01T19:47:13.095Z,75.87
2023-03-01T19:50:00.186Z,76.11
2023-03-01T19:52:48.403Z,76.30
2023-03-01T19:55:37.765Z,76.58
2023-03-01T19:58:41.348Z,77.03
2023-03-01T20:01:32.192Z,78.01
2023-03-01T20:04:23.967Z,78.42
2023-03-01T20:07:11.538Z,78.67
2023-03-01T20:10:00.264Z,78.23
2023-03-01T20:12:47.323Z,77.92
2023-03-01T20:15:37.731Z,77.80
2023-03-01T20:18:25.420Z,78.03
2023-03-01T20:21:23.483Z,78.22
2023-03-01T20:24:12.807Z,78.48
2023-03-01T20:27:01.662Z,78.72
2023-03-01T20:29:48.759Z,78.56
2023-03-01T20:32:35.915Z,78.01
2023-03-01T20:35:23.684Z,77.76
2023-03-01T20:38:11.441Z,78.09
2023-03-01T20:41:03.934Z,78.80
2023-03-01T20:43:58.761Z,79.35
2023-03-01T20:46:45.954Z,79.93
2023-03-01T20:49:33.695Z,80.46
2023-03-01T20:52:25.757Z,80.55
2023-03-01T20:55:12.906Z,81.09
2023-03-01T20:57:59.723Z,80.69
2023-03-01T21:00:46.357Z,80.68
2023-03-01T21:05:07.704Z,80.35
2023-03-01T21:09:10.499Z,81.05
2023-03-01T21:11:58.253Z,81.00
2023-03-01T21:14:47.412Z,80.42
2023-03-01T21:17:37.362Z,80.33
2023-03-01T21:20:25.465Z,80.66
2023-03-01T21:23:13.817Z,81.26
2023-03-01T21:26:04.620Z,81.90
2023-03-01T21:28:55.649Z,82.70
2023-03-01T21:31:42.409Z,83.01
2023-03-01T21:34:42.653Z,83.21
2023-03-01T21:37:29.594Z,83.61
2023-03-01T21:40:16.531Z,84.00
2023-03-01T21:43:03.505Z,83.58
2023-03-01T21:45:50.697Z,82.81
2023-03-01T21:48:39.944Z,82.70
2023-03-01T21:51:27.903Z,82.69
2023-03-01T21:54:19.675Z,82.75
2023-03-01T21:57:09.532Z,82.87
2023-03-01T21:59:58.875Z,82.78
2023-03-01T22:02:46.978Z,82.75
2023-03-01T22:05:34.598Z,83.12
2023-03-01T22:08:21.355Z,83.42
2023-03-01T22:11:08.401Z,83.72
2023-03-01T22:13:56.382Z,84.38
2023-03-01T22:16:45.347Z,85.13
2023-03-01T22:19:32.575Z,85.11
2023-03-01T22:23:11.680Z,85.91
2023-03-01T22:25:59.333Z,87.01
2023-03-01T22:28:48.321Z,88.35
2023-03-01T22:31:35.531Z,87.48
2023-03-01T22:34:23.509Z,85.13
2023-03-01T22:37:11.573Z,84.44
2023-03-01T22:39:58.794Z,84.29
2023-03-01T22:42:45.219Z,84.02
2023-03-01T22:45:33.296Z,83.67
2023-03-01T22:48:19.813Z,83.45
2023-03-01T22:51:07.081Z,83.48
2023-03-01T22:53:55.167Z,83.93
2023-03-01T22:56:43.280Z,84.38
2023-03-01T22:59:30.079Z,84.51
2023-03-01T23:02:16.726Z,84.75
2023-03-01T23:05:04.742Z,84.28
2023-03-01T23:07:51.249Z,84.32
2023-03-01T23:10:40.928Z,84.16
2023-03-01T23:13:27.763Z,84.45
2023-03-01T23:16:16.018Z,84.81
2023-03-01T23:19:04.733Z,85.20
2023-03-01T23:21:54.246Z,85.20
2023-03-01T23:24:40.904Z,85.31
2023-03-01T23:27:31.778Z,85.38
2023-03-01T23:30:18.624Z,86.53
2023-03-01T23:33:07.509Z,87.73
2023-03-01T23:35:54.929Z,89.54
2023-03-01T23:38:42.372Z,90.17
2023-03-01T23:41:31.386Z,90.38
2023-03-01T23:44:20.721Z,90.87
2023-03-01T23:47:07.433Z,91.26
2023-03-01T23:49:57.414Z,91.37
2023-03-01T23:52:44.154Z,91.52
2023-03-01T23:55:31.047Z,91.67
2023-03-01T23:58:17.921Z,91.54
